Wednesday, July 30, 2014, 11:08 AM EDT

KJYO, Leesburg / Godfrey

Location: Leesburg, VA, United States Lat: 39.083
Local Time: 11:08 AM EDT (15:08 GMT) Lon: -77.567
Time Zone: US/Eastern Elev: 390 ft

Show me the last for .
Show Decoded

2014-07-30 10:35 METAR KJYO 301435Z AUTO 00000KT 10SM CLR 22/14 A3010 RMK AO2 =
2014-07-30 10:15 METAR KJYO 301415Z AUTO 00000KT 10SM CLR 21/13 A3009 RMK AO2 =
2014-07-30 09:55 METAR KJYO 301355Z AUTO 00000KT 10SM CLR 21/14 A3010 RMK AO2 =
2014-07-30 09:35 METAR KJYO 301335Z AUTO 00000KT 10SM CLR 19/13 A3009 RMK AO2 =
2014-07-30 09:15 METAR KJYO 301315Z AUTO 00000KT 10SM CLR 18/13 A3010 RMK AO2 =
2014-07-30 08:55 METAR KJYO 301255Z AUTO 00000KT 10SM CLR 17/13 A3010 RMK AO2 =
2014-07-30 08:35 METAR KJYO 301235Z AUTO 00000KT 10SM CLR 16/13 A3010 RMK AO2 LTG DSNT N =
2014-07-30 08:15 METAR KJYO 301215Z AUTO 00000KT 10SM CLR 16/13 A3009 RMK AO2 =
2014-07-30 07:55 METAR KJYO 301155Z AUTO 00000KT 10SM CLR 15/12 A3009 RMK AO2 =
2014-07-30 07:35 METAR KJYO 301135Z AUTO 00000KT 10SM CLR 14/12 A3009 RMK AO2 =
2014-07-30 07:15 METAR KJYO 301115Z AUTO 00000KT 10SM CLR 13/12 A3008 RMK AO2 =
2014-07-30 06:55 METAR KJYO 301055Z AUTO 28003KT 10SM CLR 12/12 A3008 RMK AO2 =
2014-07-30 06:35 METAR KJYO 301035Z AUTO 00000KT 10SM CLR 12/11 A3008 RMK AO2 =
2014-07-30 06:15 METAR KJYO 301015Z AUTO 00000KT 10SM CLR 12/11 A3007 RMK AO2 =
2014-07-30 05:55 METAR KJYO 300955Z AUTO 29004KT 10SM CLR 11/11 A3006 RMK AO2 =
2014-07-30 05:35 METAR KJYO 300935Z AUTO 29005KT 10SM CLR 11/11 A3006 RMK AO2 =
2014-07-30 05:15 METAR KJYO 300915Z AUTO 00000KT 10SM CLR 11/11 A3005 RMK AO2 =
2014-07-30 04:55 METAR KJYO 300855Z AUTO 00000KT 10SM CLR 11/11 A3005 RMK AO2 =
2014-07-30 04:35 METAR KJYO 300835Z AUTO 00000KT 10SM CLR 12/11 A3004 RMK AO2 =
2014-07-30 04:15 METAR KJYO 300815Z AUTO 00000KT 10SM CLR 12/11 A3004 RMK AO2 =
2014-07-30 03:55 METAR KJYO 300755Z AUTO 00000KT 10SM CLR 12/11 A3004 RMK AO2 =
2014-07-30 03:35 METAR KJYO 300735Z AUTO 00000KT 10SM CLR 12/11 A3004 RMK AO2 =
2014-07-30 03:15 METAR KJYO 300715Z AUTO 00000KT 10SM CLR 12/11 A3004 RMK AO2 =
2014-07-30 02:55 METAR KJYO 300655Z AUTO 00000KT 10SM CLR 13/12 A3004 RMK AO2 =
2014-07-30 02:35 METAR KJYO 300635Z AUTO 00000KT 10SM CLR 12/12 A3004 RMK AO2 =
2014-07-30 02:15 METAR KJYO 300615Z AUTO 00000KT 10SM CLR 12/11 A3004 RMK AO2 =
2014-07-30 01:55 METAR KJYO 300555Z AUTO 00000KT 10SM CLR 12/12 A3005 RMK AO2 =
2014-07-30 01:35 METAR KJYO 300535Z AUTO 00000KT 10SM CLR 12/11 A3005 RMK AO2 =
2014-07-30 01:15 METAR KJYO 300515Z AUTO 00000KT 10SM CLR 13/12 A3005 RMK AO2 =
2014-07-30 00:55 METAR KJYO 300455Z AUTO 00000KT 10SM CLR 13/12 A3005 RMK AO2 =
2014-07-30 00:35 METAR KJYO 300435Z AUTO 00000KT 10SM CLR 13/12 A3005 RMK AO2 =
2014-07-30 00:15 METAR KJYO 300415Z AUTO 00000KT 10SM CLR 13/12 A3005 RMK AO2 =
2014-07-29 23:55 METAR KJYO 300355Z AUTO 00000KT 10SM CLR 12/12 A3005 RMK AO2 =
2014-07-29 23:35 METAR KJYO 300335Z AUTO 00000KT 10SM CLR 13/12 A3005 RMK AO2 =
2014-07-29 23:15 METAR KJYO 300315Z AUTO 00000KT 10SM CLR 14/12 A3004 RMK AO2 =
2014-07-29 22:55 METAR KJYO 300255Z AUTO 00000KT 10SM CLR 15/12 A3004 RMK AO2 =
2014-07-29 22:35 METAR KJYO 300235Z AUTO 00000KT 10SM CLR 15/12 A3004 RMK AO2 =
2014-07-29 22:15 METAR KJYO 300215Z AUTO 23003KT 10SM CLR 15/12 A3004 RMK AO2 =
2014-07-29 21:55 METAR KJYO 300155Z AUTO 00000KT 10SM CLR 16/12 A3003 RMK AO2 =
2014-07-29 21:35 METAR KJYO 300135Z AUTO 29004KT 10SM CLR 16/12 A3003 RMK AO2 =
2014-07-29 21:15 METAR KJYO 300115Z AUTO 00000KT 10SM CLR 16/12 A3002 RMK AO2 =
2014-07-29 20:55 METAR KJYO 300055Z AUTO 00000KT 10SM CLR 17/12 A3001 RMK AO2 =
2014-07-29 20:35 METAR KJYO 300035Z AUTO 00000KT 10SM CLR 20/11 A3001 RMK AO2 =
2014-07-29 20:15 METAR KJYO 300015Z AUTO 01004KT 10SM CLR 20/11 A3001 RMK AO2 =
2014-07-29 19:55 METAR KJYO 292355Z AUTO 35004KT 10SM CLR 20/11 A3001 RMK AO2 =
2014-07-29 19:35 METAR KJYO 292335Z AUTO 33004KT 10SM CLR 20/11 A3001 RMK AO2 =
2014-07-29 19:15 METAR KJYO 292315Z AUTO 35006KT 10SM CLR 21/11 A3001 RMK AO2 =
2014-07-29 18:55 METAR KJYO 292255Z AUTO 33009KT 10SM CLR 21/10 A3000 RMK AO2 =
2014-07-29 18:35 METAR KJYO 292235Z AUTO 34009KT 10SM CLR 22/11 A3000 RMK AO2 =
2014-07-29 18:15 METAR KJYO 292215Z AUTO 32006KT 10SM CLR 21/10 A2999 RMK AO2 =
2014-07-29 17:55 METAR KJYO 292155Z AUTO 34009G15KT 300V020 10SM CLR 22/11 A2999 RMK AO2 =
2014-07-29 17:35 METAR KJYO 292135Z AUTO 32011KT 10SM CLR 22/10 A2999 RMK AO2 =
2014-07-29 17:15 METAR KJYO 292115Z AUTO 34009G17KT 10SM CLR 23/10 A2998 RMK AO2 =
2014-07-29 16:55 METAR KJYO 292055Z AUTO 34011G18KT 10SM CLR 23/10 A2998 RMK AO2 =
2014-07-29 16:35 METAR KJYO 292035Z AUTO 36011G14KT 10SM SCT060 23/10 A2997 RMK AO2 =
2014-07-29 16:15 METAR KJYO 292015Z AUTO 33008KT 10SM SCT060 OVC065 22/11 A2997 RMK AO2 =
2014-07-29 15:55 METAR KJYO 291955Z AUTO 32009KT 10SM BKN060 22/11 A2997 RMK AO2 =
2014-07-29 15:35 METAR KJYO 291935Z AUTO 32012G17KT 10SM BKN050 BKN060 23/12 A2997 RMK AO2 =
2014-07-29 15:15 METAR KJYO 291915Z AUTO 30009KT 10SM SCT060 23/11 A2996 RMK AO2 =
2014-07-29 14:55 METAR KJYO 291855Z AUTO 30012G18KT 10SM SCT050 23/12 A2996 RMK AO2 =
2014-07-29 14:35 METAR KJYO 291835Z AUTO 33007KT 7SM SCT050 22/12 A2996 RMK AO2 =
2014-07-29 14:15 METAR KJYO 291815Z AUTO 34009G14KT 10SM SCT049 SCT055 22/12 A2996 RMK AO2 =
2014-07-29 13:55 METAR KJYO 291755Z AUTO 32010G18KT 10SM SCT047 SCT050 22/12 A2996 RMK AO2 =
2014-07-29 13:35 METAR KJYO 291735Z AUTO 31012G16KT 10SM SCT050 22/12 A2997 RMK AO2 =
2014-07-29 13:15 METAR KJYO 291715Z AUTO 31011G16KT 10SM CLR 22/12 A2996 RMK AO2 =
2014-07-29 12:55 METAR KJYO 291655Z AUTO 29008KT 250V310 10SM SCT044 22/12 A2996 RMK AO2 =
2014-07-29 12:35 METAR KJYO 291635Z AUTO 32010G17KT 10SM BKN044 21/12 A2996 RMK AO2 =
2014-07-29 12:15 METAR KJYO 291615Z AUTO 28008G16KT 10SM BKN042 21/12 A2997 RMK AO2 =
2014-07-29 11:55 METAR KJYO 291555Z AUTO 31011G17KT 10SM SCT040 SCT046 20/12 A2997 RMK AO2 =
2014-07-29 11:35 METAR KJYO 291535Z AUTO 33013G17KT 10SM SCT038 SCT046 20/12 A2996 RMK AO2 =
2014-07-29 11:15 METAR KJYO 291515Z AUTO 30012G17KT 10SM BKN036 20/12 A2997 RMK AO2 =

Support USWX by starting your Amazon purchase here.